TimeHST,TemperatureF,Dew PointF,Humidity,Sea Level PressureIn,VisibilityMPH,Wind Direction,Wind SpeedMPH,Gust SpeedMPH,PrecipitationIn,Events,Conditions,WindDirDegrees,DateUTC
12:53 AM,70.0,68.0,93,29.91,10.0,Calm,Calm,-,N/A,,Mostly Cloudy,0,2012-10-07 10:53:00
1:53 AM,71.1,68.0,90,29.89,10.0,South,3.5,-,N/A,,Overcast,190,2012-10-07 11:53:00
2:53 AM,70.0,63.0,78,29.88,10.0,SW,4.6,-,N/A,,Overcast,220,2012-10-07 12:53:00
3:53 AM,71.1,63.0,75,29.87,10.0,South,4.6,-,N/A,,Overcast,190,2012-10-07 13:53:00
4:53 AM,69.1,63.0,81,29.88,10.0,Calm,Calm,-,N/A,,Partly Cloudy,0,2012-10-07 14:53:00
5:53 AM,68.0,63.0,84,29.89,10.0,WSW,3.5,-,N/A,,Clear,240,2012-10-07 15:53:00
6:53 AM,69.1,62.1,78,29.90,10.0,WSW,4.6,-,N/A,,Clear,240,2012-10-07 16:53:00
7:53 AM,73.9,64.0,71,29.91,10.0,WSW,3.5,-,N/A,,Clear,240,2012-10-07 17:53:00
8:53 AM,80.1,68.0,67,29.91,10.0,Calm,Calm,-,N/A,,Clear,0,2012-10-07 18:53:00
9:53 AM,82.9,68.0,60,29.92,10.0,Variable,3.5,-,N/A,,Clear,0,2012-10-07 19:53:00
10:53 AM,84.0,66.9,56,29.91,10.0,NNE,6.9,-,N/A,,Partly Cloudy,20,2012-10-07 20:53:00
11:53 AM,84.0,68.0,58,29.89,10.0,East,10.4,-,N/A,,Partly Cloudy,90,2012-10-07 21:53:00
12:53 PM,84.0,69.1,61,29.88,10.0,East,11.5,-,N/A,,Partly Cloudy,100,2012-10-07 22:53:00
1:53 PM,84.0,66.0,55,29.86,10.0,ESE,11.5,-,N/A,,Scattered Clouds,120,2012-10-07 23:53:00
2:53 PM,82.0,66.9,60,29.86,10.0,ESE,9.2,-,N/A,,Mostly Cloudy,110,2012-10-08 00:53:00
3:53 PM,81.0,66.0,60,29.86,10.0,ESE,9.2,-,N/A,,Scattered Clouds,120,2012-10-08 01:53:00
4:53 PM,80.1,66.9,64,29.86,10.0,SE,6.9,-,N/A,,Overcast,130,2012-10-08 02:53:00
5:53 PM,78.1,68.0,71,29.87,10.0,SSE,4.6,-,N/A,,Overcast,150,2012-10-08 03:53:00
6:53 PM,75.0,68.0,79,29.89,10.0,Calm,Calm,-,N/A,,Clear,0,2012-10-08 04:53:00
7:53 PM,72.0,66.9,84,29.92,10.0,Calm,Calm,-,N/A,,Clear,0,2012-10-08 05:53:00
8:53 PM,72.0,68.0,87,29.94,10.0,Calm,Calm,-,N/A,,Clear,0,2012-10-08 06:53:00
9:53 PM,70.0,66.9,90,29.94,10.0,SW,3.5,-,N/A,,Clear,220,2012-10-08 07:53:00
10:53 PM,69.1,66.0,90,29.94,10.0,Calm,Calm,-,N/A,,Clear,0,2012-10-08 08:53:00
11:53 PM,69.1,64.9,87,29.94,10.0,Calm,Calm,-,N/A,,Clear,0,2012-10-08 09:53:00